sensor_id;sensor_type;location;lat;lon;timestamp;P1;durP1;ratioP1;P2;durP2;ratioP2
26582;SDS011;14230;45.382;10.998;2023-06-04T00:00:47;15.32;;;12.68;;
26582;SDS011;14230;45.382;10.998;2023-06-04T00:03:14;19.52;;;14.52;;
26582;SDS011;14230;45.382;10.998;2023-06-04T00:05:42;15.75;;;14.20;;
26582;SDS011;14230;45.382;10.998;2023-06-04T00:08:09;16.10;;;14.43;;
26582;SDS011;14230;45.382;10.998;2023-06-04T00:10:38;15.77;;;13.85;;
26582;SDS011;14230;45.382;10.998;2023-06-04T00:13:09;20.63;;;14.50;;
26582;SDS011;14230;45.382;10.998;2023-06-04T00:15:36;26.92;;;14.73;;
26582;SDS011;14230;45.382;10.998;2023-06-04T00:18:04;16.63;;;14.82;;
26582;SDS011;14230;45.382;10.998;2023-06-04T00:20:32;16.67;;;14.82;;
26582;SDS011;14230;45.382;10.998;2023-06-04T00:22:59;19.63;;;14.98;;
26582;SDS011;14230;45.382;10.998;2023-06-04T00:25:26;18.30;;;15.68;;
26582;SDS011;14230;45.382;10.998;2023-06-04T00:27:54;17.02;;;15.32;;
26582;SDS011;14230;45.382;10.998;2023-06-04T00:30:21;19.15;;;15.68;;
26582;SDS011;14230;45.382;10.998;2023-06-04T00:32:49;16.83;;;15.02;;
26582;SDS011;14230;45.382;10.998;2023-06-04T00:35:16;26.58;;;15.45;;
26582;SDS011;14230;45.382;10.998;2023-06-04T00:37:44;18.77;;;16.48;;
26582;SDS011;14230;45.382;10.998;2023-06-04T00:40:12;18.58;;;16.48;;
26582;SDS011;14230;45.382;10.998;2023-06-04T00:42:39;21.40;;;17.48;;
26582;SDS011;14230;45.382;10.998;2023-06-04T00:45:07;19.80;;;17.63;;
26582;SDS011;14230;45.382;10.998;2023-06-04T00:47:36;19.10;;;16.48;;
26582;SDS011;14230;45.382;10.998;2023-06-04T00:50:04;19.30;;;16.05;;
26582;SDS011;14230;45.382;10.998;2023-06-04T00:52:33;16.98;;;15.15;;
26582;SDS011;14230;45.382;10.998;2023-06-04T00:55:02;20.10;;;15.50;;
26582;SDS011;14230;45.382;10.998;2023-06-04T00:57:29;18.05;;;15.20;;
26582;SDS011;14230;45.382;10.998;2023-06-04T00:59:57;17.38;;;13.23;;
26582;SDS011;14230;45.382;10.998;2023-06-04T01:02:24;15.32;;;13.80;;
26582;SDS011;14230;45.382;10.998;2023-06-04T01:05:02;16.67;;;13.48;;
26582;SDS011;14230;45.382;10.998;2023-06-04T01:07:49;16.83;;;13.43;;
26582;SDS011;14230;45.382;10.998;2023-06-04T01:10:17;20.27;;;13.48;;
26582;SDS011;14230;45.382;10.998;2023-06-04T01:12:45;19.40;;;13.82;;
26582;SDS011;14230;45.382;10.998;2023-06-04T01:15:13;16.85;;;13.50;;
26582;SDS011;14230;45.382;10.998;2023-06-04T01:17:41;14.27;;;12.75;;
26582;SDS011;14230;45.382;10.998;2023-06-04T01:20:20;17.25;;;13.43;;
26582;SDS011;14230;45.382;10.998;2023-06-04T01:25:51;20.52;;;13.23;;
26582;SDS011;14230;45.382;10.998;2023-06-04T01:28:19;17.20;;;13.35;;
26582;SDS011;14230;45.382;10.998;2023-06-04T01:30:48;17.70;;;13.52;;
26582;SDS011;14230;45.382;10.998;2023-06-04T01:33:19;19.42;;;12.73;;
26582;SDS011;14230;45.382;10.998;2023-06-04T01:35:47;16.92;;;13.02;;
26582;SDS011;14230;45.382;10.998;2023-06-04T01:38:15;18.67;;;12.50;;
26582;SDS011;14230;45.382;10.998;2023-06-04T01:40:42;14.25;;;12.63;;
26582;SDS011;14230;45.382;10.998;2023-06-04T01:43:10;15.13;;;12.52;;
26582;SDS011;14230;45.382;10.998;2023-06-04T01:45:37;15.45;;;12.05;;
26582;SDS011;14230;45.382;10.998;2023-06-04T01:48:05;16.05;;;13.63;;
26582;SDS011;14230;45.382;10.998;2023-06-04T01:50:33;17.27;;;12.82;;
26582;SDS011;14230;45.382;10.998;2023-06-04T01:53:00;16.33;;;12.30;;
26582;SDS011;14230;45.382;10.998;2023-06-04T01:55:28;15.32;;;12.75;;
26582;SDS011;14230;45.382;10.998;2023-06-04T01:58:00;14.98;;;12.77;;
26582;SDS011;14230;45.382;10.998;2023-06-04T02:00:28;14.35;;;12.85;;
26582;SDS011;14230;45.382;10.998;2023-06-04T02:02:56;15.00;;;13.02;;
26582;SDS011;14230;45.382;10.998;2023-06-04T02:05:25;16.75;;;14.95;;
26582;SDS011;14230;45.382;10.998;2023-06-04T02:07:53;20.17;;;15.25;;
26582;SDS011;14230;45.382;10.998;2023-06-04T02:10:20;19.67;;;16.75;;
26582;SDS011;14230;45.382;10.998;2023-06-04T02:12:58;21.83;;;17.20;;
26582;SDS011;14230;45.382;10.998;2023-06-04T02:15:27;21.48;;;18.02;;
26582;SDS011;14230;45.382;10.998;2023-06-04T02:17:58;24.55;;;19.90;;
26582;SDS011;14230;45.382;10.998;2023-06-04T02:20:48;28.08;;;20.88;;
26582;SDS011;14230;45.382;10.998;2023-06-04T02:23:17;29.08;;;22.10;;
26582;SDS011;14230;45.382;10.998;2023-06-04T02:25:46;28.63;;;22.85;;
26582;SDS011;14230;45.382;10.998;2023-06-04T02:28:15;26.52;;;23.27;;
26582;SDS011;14230;45.382;10.998;2023-06-04T02:30:43;30.35;;;23.08;;
26582;SDS011;14230;45.382;10.998;2023-06-04T02:33:13;29.92;;;24.77;;
26582;SDS011;14230;45.382;10.998;2023-06-04T02:35:41;26.80;;;23.98;;
26582;SDS011;14230;45.382;10.998;2023-06-04T02:38:09;28.55;;;24.30;;
26582;SDS011;14230;45.382;10.998;2023-06-04T02:40:38;29.60;;;26.40;;
26582;SDS011;14230;45.382;10.998;2023-06-04T02:43:05;31.63;;;25.00;;
26582;SDS011;14230;45.382;10.998;2023-06-04T02:45:33;29.58;;;24.88;;
26582;SDS011;14230;45.382;10.998;2023-06-04T02:48:00;29.73;;;25.52;;
26582;SDS011;14230;45.382;10.998;2023-06-04T02:50:28;28.10;;;25.10;;
26582;SDS011;14230;45.382;10.998;2023-06-04T02:52:55;27.73;;;24.35;;
26582;SDS011;14230;45.382;10.998;2023-06-04T02:55:23;26.77;;;23.92;;
26582;SDS011;14230;45.382;10.998;2023-06-04T02:57:50;24.83;;;22.10;;
26582;SDS011;14230;45.382;10.998;2023-06-04T03:00:18;25.83;;;22.15;;
26582;SDS011;14230;45.382;10.998;2023-06-04T03:02:46;23.42;;;20.98;;
26582;SDS011;14230;45.382;10.998;2023-06-04T03:05:16;22.67;;;19.35;;
26582;SDS011;14230;45.382;10.998;2023-06-04T03:07:45;20.55;;;16.02;;
26582;SDS011;14230;45.382;10.998;2023-06-04T03:10:14;16.70;;;15.07;;
26582;SDS011;14230;45.382;10.998;2023-06-04T03:12:42;16.75;;;14.77;;
26582;SDS011;14230;45.382;10.998;2023-06-04T03:15:10;14.60;;;11.98;;
26582;SDS011;14230;45.382;10.998;2023-06-04T03:17:40;13.48;;;11.88;;
26582;SDS011;14230;45.382;10.998;2023-06-04T03:20:08;12.70;;;11.40;;
26582;SDS011;14230;45.382;10.998;2023-06-04T03:22:36;13.23;;;11.82;;
26582;SDS011;14230;45.382;10.998;2023-06-04T03:25:04;15.50;;;12.43;;
26582;SDS011;14230;45.382;10.998;2023-06-04T03:27:33;15.77;;;11.82;;
26582;SDS011;14230;45.382;10.998;2023-06-04T03:30:01;14.60;;;11.50;;
26582;SDS011;14230;45.382;10.998;2023-06-04T03:32:39;12.00;;;10.77;;
26582;SDS011;14230;45.382;10.998;2023-06-04T03:35:07;12.88;;;10.30;;
26582;SDS011;14230;45.382;10.998;2023-06-04T03:37:35;19.35;;;11.93;;
26582;SDS011;14230;45.382;10.998;2023-06-04T03:40:02;17.40;;;10.93;;
26582;SDS011;14230;45.382;10.998;2023-06-04T03:42:35;11.98;;;10.75;;
26582;SDS011;14230;45.382;10.998;2023-06-04T03:45:03;13.73;;;11.05;;
26582;SDS011;14230;45.382;10.998;2023-06-04T03:47:32;11.98;;;10.43;;
26582;SDS011;14230;45.382;10.998;2023-06-04T03:50:00;12.02;;;10.07;;
26582;SDS011;14230;45.382;10.998;2023-06-04T03:52:28;13.25;;;10.25;;
26582;SDS011;14230;45.382;10.998;2023-06-04T03:54:58;11.35;;;10.13;;
26582;SDS011;14230;45.382;10.998;2023-06-04T03:57:28;11.30;;;10.23;;
26582;SDS011;14230;45.382;10.998;2023-06-04T03:59:56;11.25;;;10.15;;
26582;SDS011;14230;45.382;10.998;2023-06-04T04:02:24;12.80;;;10.13;;
26582;SDS011;14230;45.382;10.998;2023-06-04T04:04:52;13.23;;;10.52;;
26582;SDS011;14230;45.382;10.998;2023-06-04T04:07:22;13.43;;;9.95;;
26582;SDS011;14230;45.382;10.998;2023-06-04T04:09:51;11.38;;;9.63;;
26582;SDS011;14230;45.382;10.998;2023-06-04T04:12:19;10.15;;;8.98;;
26582;SDS011;14230;45.382;10.998;2023-06-04T04:14:48;10.65;;;9.52;;
26582;SDS011;14230;45.382;10.998;2023-06-04T04:17:16;10.25;;;9.25;;
26582;SDS011;14230;45.382;10.998;2023-06-04T04:19:44;10.55;;;9.45;;
26582;SDS011;14230;45.382;10.998;2023-06-04T04:22:11;10.85;;;9.02;;
26582;SDS011;14230;45.382;10.998;2023-06-04T04:24:40;13.65;;;10.18;;
26582;SDS011;14230;45.382;10.998;2023-06-04T04:27:07;13.93;;;11.15;;
26582;SDS011;14230;45.382;10.998;2023-06-04T04:29:37;11.77;;;9.68;;
26582;SDS011;14230;45.382;10.998;2023-06-04T04:32:06;11.88;;;10.07;;
26582;SDS011;14230;45.382;10.998;2023-06-04T04:34:49;11.32;;;8.90;;
26582;SDS011;14230;45.382;10.998;2023-06-04T04:37:30;10.23;;;9.20;;
26582;SDS011;14230;45.382;10.998;2023-06-04T04:39:57;11.50;;;9.45;;
26582;SDS011;14230;45.382;10.998;2023-06-04T04:42:28;10.52;;;9.52;;
26582;SDS011;14230;45.382;10.998;2023-06-04T04:44:55;13.75;;;9.05;;
26582;SDS011;14230;45.382;10.998;2023-06-04T04:47:25;9.98;;;8.98;;
26582;SDS011;14230;45.382;10.998;2023-06-04T04:49:52;11.50;;;8.20;;
26582;SDS011;14230;45.382;10.998;2023-06-04T04:52:20;11.13;;;8.20;;
26582;SDS011;14230;45.382;10.998;2023-06-04T04:54:48;13.55;;;9.88;;
26582;SDS011;14230;45.382;10.998;2023-06-04T04:57:15;11.73;;;8.30;;
26582;SDS011;14230;45.382;10.998;2023-06-04T04:59:46;9.80;;;8.77;;
26582;SDS011;14230;45.382;10.998;2023-06-04T05:02:14;11.02;;;9.02;;
26582;SDS011;14230;45.382;10.998;2023-06-04T05:04:42;10.73;;;8.55;;
26582;SDS011;14230;45.382;10.998;2023-06-04T05:07:12;14.02;;;8.88;;
26582;SDS011;14230;45.382;10.998;2023-06-04T05:09:40;9.80;;;8.90;;
26582;SDS011;14230;45.382;10.998;2023-06-04T05:12:07;11.25;;;8.20;;
26582;SDS011;14230;45.382;10.998;2023-06-04T05:14:37;9.55;;;8.35;;
26582;SDS011;14230;45.382;10.998;2023-06-04T05:17:05;11.38;;;8.80;;
26582;SDS011;14230;45.382;10.998;2023-06-04T05:19:34;10.60;;;9.15;;
26582;SDS011;14230;45.382;10.998;2023-06-04T05:22:02;14.95;;;9.15;;
26582;SDS011;14230;45.382;10.998;2023-06-04T05:24:30;8.77;;;7.88;;
26582;SDS011;14230;45.382;10.998;2023-06-04T05:27:01;14.57;;;8.95;;
26582;SDS011;14230;45.382;10.998;2023-06-04T05:29:30;10.52;;;8.50;;
26582;SDS011;14230;45.382;10.998;2023-06-04T05:31:58;9.20;;;8.23;;
26582;SDS011;14230;45.382;10.998;2023-06-04T05:34:26;11.43;;;8.65;;
26582;SDS011;14230;45.382;10.998;2023-06-04T05:36:54;11.40;;;9.13;;
26582;SDS011;14230;45.382;10.998;2023-06-04T05:39:24;11.15;;;8.57;;
26582;SDS011;14230;45.382;10.998;2023-06-04T05:41:57;10.73;;;9.02;;
26582;SDS011;14230;45.382;10.998;2023-06-04T05:44:25;8.88;;;7.97;;
26582;SDS011;14230;45.382;10.998;2023-06-04T05:46:52;9.45;;;8.43;;
26582;SDS011;14230;45.382;10.998;2023-06-04T05:49:20;11.88;;;8.18;;
26582;SDS011;14230;45.382;10.998;2023-06-04T05:51:53;9.70;;;8.55;;
26582;SDS011;14230;45.382;10.998;2023-06-04T05:54:21;10.10;;;8.10;;
26582;SDS011;14230;45.382;10.998;2023-06-04T05:56:49;9.15;;;8.13;;
26582;SDS011;14230;45.382;10.998;2023-06-04T05:59:17;8.73;;;7.53;;
26582;SDS011;14230;45.382;10.998;2023-06-04T06:01:44;8.23;;;7.43;;
26582;SDS011;14230;45.382;10.998;2023-06-04T06:04:12;8.95;;;7.78;;
26582;SDS011;14230;45.382;10.998;2023-06-04T06:06:41;9.07;;;7.75;;
26582;SDS011;14230;45.382;10.998;2023-06-04T06:09:10;8.65;;;7.32;;
26582;SDS011;14230;45.382;10.998;2023-06-04T06:11:38;8.23;;;7.28;;
26582;SDS011;14230;45.382;10.998;2023-06-04T06:14:05;8.75;;;7.05;;
26582;SDS011;14230;45.382;10.998;2023-06-04T06:16:33;13.80;;;8.07;;
26582;SDS011;14230;45.382;10.998;2023-06-04T06:19:01;11.65;;;8.07;;
26582;SDS011;14230;45.382;10.998;2023-06-04T06:21:29;8.68;;;6.95;;
26582;SDS011;14230;45.382;10.998;2023-06-04T06:23:57;9.60;;;7.47;;
26582;SDS011;14230;45.382;10.998;2023-06-04T06:26:26;8.40;;;6.90;;
26582;SDS011;14230;45.382;10.998;2023-06-04T06:28:56;8.90;;;6.30;;
26582;SDS011;14230;45.382;10.998;2023-06-04T06:31:24;12.40;;;8.15;;
26582;SDS011;14230;45.382;10.998;2023-06-04T06:33:52;7.95;;;7.15;;
26582;SDS011;14230;45.382;10.998;2023-06-04T06:36:20;10.80;;;7.38;;
26582;SDS011;14230;45.382;10.998;2023-06-04T06:38:47;7.93;;;7.03;;
26582;SDS011;14230;45.382;10.998;2023-06-04T06:41:15;9.23;;;8.32;;
26582;SDS011;14230;45.382;10.998;2023-06-04T06:43:42;12.05;;;7.85;;
26582;SDS011;14230;45.382;10.998;2023-06-04T06:46:10;8.70;;;7.90;;
26582;SDS011;14230;45.382;10.998;2023-06-04T06:48:37;14.25;;;8.05;;
26582;SDS011;14230;45.382;10.998;2023-06-04T06:51:05;8.85;;;7.68;;
26582;SDS011;14230;45.382;10.998;2023-06-04T06:53:32;10.13;;;8.00;;
26582;SDS011;14230;45.382;10.998;2023-06-04T06:56:00;10.25;;;8.45;;
26582;SDS011;14230;45.382;10.998;2023-06-04T06:58:28;26.80;;;20.20;;
26582;SDS011;14230;45.382;10.998;2023-06-04T07:00:55;12.38;;;8.13;;
26582;SDS011;14230;45.382;10.998;2023-06-04T07:03:23;9.68;;;8.65;;
26582;SDS011;14230;45.382;10.998;2023-06-04T07:05:51;10.55;;;8.00;;
26582;SDS011;14230;45.382;10.998;2023-06-04T07:08:18;10.57;;;6.38;;
26582;SDS011;14230;45.382;10.998;2023-06-04T07:10:45;11.65;;;7.47;;
26582;SDS011;14230;45.382;10.998;2023-06-04T07:13:13;9.93;;;7.05;;
26582;SDS011;14230;45.382;10.998;2023-06-04T07:15:40;8.27;;;7.45;;
26582;SDS011;14230;45.382;10.998;2023-06-04T07:18:08;11.52;;;7.50;;
26582;SDS011;14230;45.382;10.998;2023-06-04T07:20:36;8.35;;;7.15;;
26582;SDS011;14230;45.382;10.998;2023-06-04T07:23:03;8.40;;;6.32;;
26582;SDS011;14230;45.382;10.998;2023-06-04T07:25:31;7.63;;;6.70;;
26582;SDS011;14230;45.382;10.998;2023-06-04T07:27:58;9.40;;;7.80;;
26582;SDS011;14230;45.382;10.998;2023-06-04T07:30:26;11.18;;;7.18;;
26582;SDS011;14230;45.382;10.998;2023-06-04T07:32:53;7.35;;;6.35;;
26582;SDS011;14230;45.382;10.998;2023-06-04T07:35:21;7.28;;;6.57;;
26582;SDS011;14230;45.382;10.998;2023-06-04T07:37:49;7.57;;;6.53;;
26582;SDS011;14230;45.382;10.998;2023-06-04T07:40:16;8.23;;;7.07;;
26582;SDS011;14230;45.382;10.998;2023-06-04T07:42:45;8.18;;;6.60;;
26582;SDS011;14230;45.382;10.998;2023-06-04T07:45:14;9.13;;;6.72;;
26582;SDS011;14230;45.382;10.998;2023-06-04T07:47:42;19.13;;;16.25;;
26582;SDS011;14230;45.382;10.998;2023-06-04T07:50:11;7.78;;;6.50;;
26582;SDS011;14230;45.382;10.998;2023-06-04T07:52:38;9.18;;;6.30;;
26582;SDS011;14230;45.382;10.998;2023-06-04T07:55:06;6.15;;;5.43;;
26582;SDS011;14230;45.382;10.998;2023-06-04T07:57:35;7.05;;;6.28;;
26582;SDS011;14230;45.382;10.998;2023-06-04T08:00:03;6.40;;;5.60;;
26582;SDS011;14230;45.382;10.998;2023-06-04T08:02:37;7.80;;;6.40;;
26582;SDS011;14230;45.382;10.998;2023-06-04T08:05:05;8.25;;;6.20;;
26582;SDS011;14230;45.382;10.998;2023-06-04T08:07:32;7.88;;;5.65;;
26582;SDS011;14230;45.382;10.998;2023-06-04T08:10:00;7.05;;;5.68;;
26582;SDS011;14230;45.382;10.998;2023-06-04T08:12:27;8.95;;;5.70;;
26582;SDS011;14230;45.382;10.998;2023-06-04T08:14:55;6.32;;;5.72;;
26582;SDS011;14230;45.382;10.998;2023-06-04T08:17:24;6.78;;;6.07;;
26582;SDS011;14230;45.382;10.998;2023-06-04T08:19:51;7.40;;;5.78;;
26582;SDS011;14230;45.382;10.998;2023-06-04T08:22:19;6.13;;;5.30;;
26582;SDS011;14230;45.382;10.998;2023-06-04T08:24:46;23.50;;;20.20;;
26582;SDS011;14230;45.382;10.998;2023-06-04T08:27:14;5.82;;;5.22;;
26582;SDS011;14230;45.382;10.998;2023-06-04T08:29:42;5.55;;;5.05;;
26582;SDS011;14230;45.382;10.998;2023-06-04T08:32:09;6.47;;;5.57;;
26582;SDS011;14230;45.382;10.998;2023-06-04T08:34:37;5.40;;;4.90;;
26582;SDS011;14230;45.382;10.998;2023-06-04T08:37:05;5.60;;;4.95;;
26582;SDS011;14230;45.382;10.998;2023-06-04T08:39:32;5.82;;;5.22;;
26582;SDS011;14230;45.382;10.998;2023-06-04T08:42:00;5.97;;;5.47;;
26582;SDS011;14230;45.382;10.998;2023-06-04T08:44:30;11.27;;;5.90;;
26582;SDS011;14230;45.382;10.998;2023-06-04T08:47:04;7.93;;;5.53;;
26582;SDS011;14230;45.382;10.998;2023-06-04T08:49:35;7.60;;;5.88;;
26582;SDS011;14230;45.382;10.998;2023-06-04T08:52:03;6.35;;;4.78;;
26582;SDS011;14230;45.382;10.998;2023-06-04T08:54:33;5.93;;;4.82;;
26582;SDS011;14230;45.382;10.998;2023-06-04T08:57:00;6.30;;;5.13;;
26582;SDS011;14230;45.382;10.998;2023-06-04T08:59:29;5.68;;;5.05;;
26582;SDS011;14230;45.382;10.998;2023-06-04T09:01:56;9.05;;;5.95;;
26582;SDS011;14230;45.382;10.998;2023-06-04T09:04:25;7.25;;;5.38;;
26582;SDS011;14230;45.382;10.998;2023-06-04T09:06:53;5.25;;;4.72;;
26582;SDS011;14230;45.382;10.998;2023-06-04T09:09:21;5.97;;;5.38;;
26582;SDS011;14230;45.382;10.998;2023-06-04T09:11:51;6.30;;;5.55;;
26582;SDS011;14230;45.382;10.998;2023-06-04T09:14:19;9.05;;;7.07;;
26582;SDS011;14230;45.382;10.998;2023-06-04T09:19:16;6.20;;;5.60;;
26582;SDS011;14230;45.382;10.998;2023-06-04T09:21:49;9.75;;;6.05;;
26582;SDS011;14230;45.382;10.998;2023-06-04T09:24:19;7.30;;;6.03;;
26582;SDS011;14230;45.382;10.998;2023-06-04T09:26:48;7.97;;;6.50;;
26582;SDS011;14230;45.382;10.998;2023-06-04T09:29:17;8.02;;;6.70;;
26582;SDS011;14230;45.382;10.998;2023-06-04T09:31:45;9.27;;;6.53;;
26582;SDS011;14230;45.382;10.998;2023-06-04T09:34:28;7.10;;;6.40;;
26582;SDS011;14230;45.382;10.998;2023-06-04T09:36:58;9.15;;;6.65;;
26582;SDS011;14230;45.382;10.998;2023-06-04T09:39:25;9.35;;;7.45;;
26582;SDS011;14230;45.382;10.998;2023-06-04T09:41:57;9.93;;;6.50;;
26582;SDS011;14230;45.382;10.998;2023-06-04T09:44:28;7.75;;;6.68;;
26582;SDS011;14230;45.382;10.998;2023-06-04T09:46:57;6.88;;;6.05;;
26582;SDS011;14230;45.382;10.998;2023-06-04T09:49:25;10.57;;;7.70;;
26582;SDS011;14230;45.382;10.998;2023-06-04T09:51:53;9.98;;;6.32;;
26582;SDS011;14230;45.382;10.998;2023-06-04T09:54:20;5.80;;;4.97;;
26582;SDS011;14230;45.382;10.998;2023-06-04T09:56:47;8.85;;;5.97;;
26582;SDS011;14230;45.382;10.998;2023-06-04T09:59:15;6.50;;;5.55;;
26582;SDS011;14230;45.382;10.998;2023-06-04T10:01:44;8.75;;;5.82;;
26582;SDS011;14230;45.382;10.998;2023-06-04T10:04:13;11.70;;;6.38;;
26582;SDS011;14230;45.382;10.998;2023-06-04T10:06:42;5.90;;;5.40;;
26582;SDS011;14230;45.382;10.998;2023-06-04T10:09:10;6.32;;;5.72;;
26582;SDS011;14230;45.382;10.998;2023-06-04T10:11:41;7.07;;;5.85;;
26582;SDS011;14230;45.382;10.998;2023-06-04T10:16:44;8.65;;;6.30;;
26582;SDS011;14230;45.382;10.998;2023-06-04T10:19:12;9.02;;;5.50;;
26582;SDS011;14230;45.382;10.998;2023-06-04T10:21:41;6.30;;;5.70;;
26582;SDS011;14230;45.382;10.998;2023-06-04T10:24:10;6.97;;;5.05;;
26582;SDS011;14230;45.382;10.998;2023-06-04T10:26:39;5.70;;;4.70;;
26582;SDS011;14230;45.382;10.998;2023-06-04T10:29:10;7.25;;;5.03;;
26582;SDS011;14230;45.382;10.998;2023-06-04T10:31:39;6.38;;;4.60;;
26582;SDS011;14230;45.382;10.998;2023-06-04T10:34:08;6.78;;;4.45;;
26582;SDS011;14230;45.382;10.998;2023-06-04T10:36:42;7.40;;;4.43;;
26582;SDS011;14230;45.382;10.998;2023-06-04T10:39:11;7.95;;;5.20;;
26582;SDS011;14230;45.382;10.998;2023-06-04T10:41:39;7.72;;;4.80;;
26582;SDS011;14230;45.382;10.998;2023-06-04T10:44:06;5.20;;;4.70;;
26582;SDS011;14230;45.382;10.998;2023-06-04T10:46:40;7.82;;;4.95;;
26582;SDS011;14230;45.382;10.998;2023-06-04T10:49:09;4.68;;;4.13;;
26582;SDS011;14230;45.382;10.998;2023-06-04T10:51:41;6.38;;;4.65;;
26582;SDS011;14230;45.382;10.998;2023-06-04T10:54:21;5.60;;;4.30;;
26582;SDS011;14230;45.382;10.998;2023-06-04T10:56:52;8.23;;;4.63;;
26582;SDS011;14230;45.382;10.998;2023-06-04T10:59:20;5.15;;;4.65;;
26582;SDS011;14230;45.382;10.998;2023-06-04T11:01:48;9.05;;;5.80;;
26582;SDS011;14230;45.382;10.998;2023-06-04T11:07:03;6.88;;;5.05;;
26582;SDS011;14230;45.382;10.998;2023-06-04T11:09:38;5.40;;;4.47;;
26582;SDS011;14230;45.382;10.998;2023-06-04T11:12:15;5.00;;;4.43;;
26582;SDS011;14230;45.382;10.998;2023-06-04T11:14:57;8.50;;;5.20;;
26582;SDS011;14230;45.382;10.998;2023-06-04T11:17:26;8.27;;;4.82;;
26582;SDS011;14230;45.382;10.998;2023-06-04T11:19:53;5.38;;;4.88;;
26582;SDS011;14230;45.382;10.998;2023-06-04T11:22:23;9.52;;;4.93;;
26582;SDS011;14230;45.382;10.998;2023-06-04T11:24:55;6.10;;;5.47;;
26582;SDS011;14230;45.382;10.998;2023-06-04T11:27:26;10.77;;;5.28;;
26582;SDS011;14230;45.382;10.998;2023-06-04T11:30:03;4.97;;;4.50;;
26582;SDS011;14230;45.382;10.998;2023-06-04T11:32:34;16.73;;;14.07;;
26582;SDS011;14230;45.382;10.998;2023-06-04T11:35:02;7.68;;;5.20;;
26582;SDS011;14230;45.382;10.998;2023-06-04T11:37:32;9.10;;;5.30;;
26582;SDS011;14230;45.382;10.998;2023-06-04T11:40:00;7.47;;;5.32;;
26582;SDS011;14230;45.382;10.998;2023-06-04T11:42:28;6.72;;;5.70;;
26582;SDS011;14230;45.382;10.998;2023-06-04T11:44:57;9.40;;;5.68;;
26582;SDS011;14230;45.382;10.998;2023-06-04T11:47:24;7.13;;;5.32;;
26582;SDS011;14230;45.382;10.998;2023-06-04T11:49:55;6.80;;;6.00;;
26582;SDS011;14230;45.382;10.998;2023-06-04T11:52:23;7.70;;;6.15;;
26582;SDS011;14230;45.382;10.998;2023-06-04T11:54:51;8.75;;;5.90;;
26582;SDS011;14230;45.382;10.998;2023-06-04T11:57:19;6.68;;;5.63;;
26582;SDS011;14230;45.382;10.998;2023-06-04T11:59:46;7.88;;;5.90;;
26582;SDS011;14230;45.382;10.998;2023-06-04T12:02:14;8.18;;;6.32;;
26582;SDS011;14230;45.382;10.998;2023-06-04T12:04:41;6.88;;;5.88;;
26582;SDS011;14230;45.382;10.998;2023-06-04T12:07:09;14.70;;;6.28;;
26582;SDS011;14230;45.382;10.998;2023-06-04T12:09:37;6.10;;;5.50;;
26582;SDS011;14230;45.382;10.998;2023-06-04T12:12:07;8.32;;;5.78;;
26582;SDS011;14230;45.382;10.998;2023-06-04T12:14:34;6.05;;;5.45;;
26582;SDS011;14230;45.382;10.998;2023-06-04T12:17:06;6.80;;;5.82;;
26582;SDS011;14230;45.382;10.998;2023-06-04T12:19:49;8.23;;;5.90;;
26582;SDS011;14230;45.382;10.998;2023-06-04T12:22:18;12.32;;;5.32;;
26582;SDS011;14230;45.382;10.998;2023-06-04T12:24:50;8.35;;;5.40;;
26582;SDS011;14230;45.382;10.998;2023-06-04T12:27:23;9.02;;;5.75;;
26582;SDS011;14230;45.382;10.998;2023-06-04T12:29:55;7.20;;;5.30;;
26582;SDS011;14230;45.382;10.998;2023-06-04T12:32:26;6.22;;;5.63;;
26582;SDS011;14230;45.382;10.998;2023-06-04T12:34:54;9.13;;;5.55;;
26582;SDS011;14230;45.382;10.998;2023-06-04T12:37:22;7.15;;;5.10;;
26582;SDS011;14230;45.382;10.998;2023-06-04T12:39:52;5.70;;;4.80;;
26582;SDS011;14230;45.382;10.998;2023-06-04T12:42:21;7.93;;;5.80;;
26582;SDS011;14230;45.382;10.998;2023-06-04T12:44:49;8.05;;;5.20;;
26582;SDS011;14230;45.382;10.998;2023-06-04T12:47:17;10.18;;;8.25;;
26582;SDS011;14230;45.382;10.998;2023-06-04T12:49:48;8.23;;;5.68;;
26582;SDS011;14230;45.382;10.998;2023-06-04T12:52:16;6.35;;;5.75;;
26582;SDS011;14230;45.382;10.998;2023-06-04T12:54:44;9.50;;;5.10;;
26582;SDS011;14230;45.382;10.998;2023-06-04T12:57:11;7.32;;;5.32;;
26582;SDS011;14230;45.382;10.998;2023-06-04T12:59:39;8.52;;;5.22;;
26582;SDS011;14230;45.382;10.998;2023-06-04T13:02:06;7.72;;;4.93;;
26582;SDS011;14230;45.382;10.998;2023-06-04T13:04:34;6.60;;;5.30;;
26582;SDS011;14230;45.382;10.998;2023-06-04T13:07:01;7.93;;;5.53;;
26582;SDS011;14230;45.382;10.998;2023-06-04T13:09:30;7.90;;;4.88;;
26582;SDS011;14230;45.382;10.998;2023-06-04T13:11:59;6.82;;;5.65;;
26582;SDS011;14230;45.382;10.998;2023-06-04T13:14:26;8.75;;;6.35;;
26582;SDS011;14230;45.382;10.998;2023-06-04T13:16:54;17.55;;;11.13;;
26582;SDS011;14230;45.382;10.998;2023-06-04T13:19:25;8.43;;;6.33;;
26582;SDS011;14230;45.382;10.998;2023-06-04T13:21:53;6.97;;;5.90;;
26582;SDS011;14230;45.382;10.998;2023-06-04T13:24:21;6.35;;;5.32;;
26582;SDS011;14230;45.382;10.998;2023-06-04T13:26:48;7.32;;;6.00;;
26582;SDS011;14230;45.382;10.998;2023-06-04T13:29:16;6.63;;;5.72;;
26582;SDS011;14230;45.382;10.998;2023-06-04T13:31:48;6.57;;;5.57;;
26582;SDS011;14230;45.382;10.998;2023-06-04T13:34:16;9.63;;;6.43;;
26582;SDS011;14230;45.382;10.998;2023-06-04T13:36:54;9.93;;;6.22;;
26582;SDS011;14230;45.382;10.998;2023-06-04T13:39:22;6.60;;;5.25;;
26582;SDS011;14230;45.382;10.998;2023-06-04T13:41:49;8.05;;;5.97;;
26582;SDS011;14230;45.382;10.998;2023-06-04T13:44:17;6.88;;;6.13;;
26582;SDS011;14230;45.382;10.998;2023-06-04T13:46:44;9.98;;;6.20;;
26582;SDS011;14230;45.382;10.998;2023-06-04T13:49:12;10.77;;;6.70;;
26582;SDS011;14230;45.382;10.998;2023-06-04T13:51:39;10.90;;;6.95;;
26582;SDS011;14230;45.382;10.998;2023-06-04T13:54:07;10.30;;;6.75;;
26582;SDS011;14230;45.382;10.998;2023-06-04T13:56:39;9.45;;;6.10;;
26582;SDS011;14230;45.382;10.998;2023-06-04T13:59:06;8.38;;;5.88;;
26582;SDS011;14230;45.382;10.998;2023-06-04T14:01:33;8.65;;;5.88;;
26582;SDS011;14230;45.382;10.998;2023-06-04T14:04:01;8.48;;;6.93;;
26582;SDS011;14230;45.382;10.998;2023-06-04T14:06:34;7.95;;;6.32;;
26582;SDS011;14230;45.382;10.998;2023-06-04T14:09:03;10.90;;;7.32;;
26582;SDS011;14230;45.382;10.998;2023-06-04T14:11:33;8.60;;;7.25;;
26582;SDS011;14230;45.382;10.998;2023-06-04T14:14:01;7.43;;;6.50;;
26582;SDS011;14230;45.382;10.998;2023-06-04T14:16:29;6.85;;;6.15;;
26582;SDS011;14230;45.382;10.998;2023-06-04T14:18:56;9.90;;;6.25;;
26582;SDS011;14230;45.382;10.998;2023-06-04T14:21:24;8.23;;;6.20;;
26582;SDS011;14230;45.382;10.998;2023-06-04T14:23:52;10.68;;;6.93;;
26582;SDS011;14230;45.382;10.998;2023-06-04T14:26:20;8.45;;;6.25;;
26582;SDS011;14230;45.382;10.998;2023-06-04T14:28:49;7.18;;;6.57;;
26582;SDS011;14230;45.382;10.998;2023-06-04T14:31:16;7.18;;;6.38;;
26582;SDS011;14230;45.382;10.998;2023-06-04T14:33:44;9.43;;;7.07;;
26582;SDS011;14230;45.382;10.998;2023-06-04T14:36:11;7.97;;;7.03;;
26582;SDS011;14230;45.382;10.998;2023-06-04T14:38:39;8.88;;;7.95;;
26582;SDS011;14230;45.382;10.998;2023-06-04T14:41:07;8.02;;;7.00;;
26582;SDS011;14230;45.382;10.998;2023-06-04T14:43:35;7.70;;;6.45;;